Portland, Oregon
Traffic Map
Current Weather Conditions
Portland, Oregon
Clear
Clear
62°
Feels Like: 62°
Wind Chill: 62° Ceiling: Unl
Heat Index: 62° Visibility: 10mi
Dew Point: 34° Wind: 3mph
Humidity: 35% Direction: 120° (ESE)
Pressure: 30.22in Gusts: 0mph
Raw Report DataKPDX 160253Z 12003KT 10SM CLR 17/01 A3022 RMK AO2 SLP233 T01670011 55000
Traffic Incident Summary
Active as of:
Severity:
Category:
InformationThere was an issue retrieving the traffic information for this location. Please try a different location or try again shortly.
Advertisements